If you wish to contribute or participate in the discussions about articles you are invited to join SKYbrary as a registered user

 Actions

Shageluk Airport

From SKYbrary Wiki

PAHX
Airport
ICAO: PAHX – IATA: SHX
Summary
Name Shageluk Airport
Region North America
Territory Alaska US.gif
Location , Alaska
Serving Shageluk
Elevation 24.079 m
79 ft
79 ft24.079 m
Type small airport
Coordinates 62° 41' 32.00" N, 159° 34' 9.00" W
Runways
Designator Length Width Surface ROPS
16/34 1036 m3,398.95 ft
15 m49.213 ft
GRVL-F /
18W/36W 1524 m5,000 ft
305 m1,000.656 ft
WATER /


METAR
Observation PAHX 150856Z AUTO 00000KT 8SM OVC085 18/12 A2976 RMK AO2 SLP078 T01780122 402110122 53004
Station Shageluk Airport
Date/Time 15 July 2019 08:56:00
Wind direction
Wind speed 00 kts
Lowest cloud amount overcast
Temperature 17.8°C
Dew point 12.2°C
Humidity 69%
QNH hPa
Weather condition n/a